createdAt,value
2022-10-01T00:01:51.000Z,25.12
2022-10-01T00:04:16.000Z,24.37
2022-10-01T00:06:45.000Z,24.95
2022-10-01T00:09:11.000Z,24.2
2022-10-01T00:11:37.000Z,24.47
2022-10-01T00:14:04.000Z,26.17
2022-10-01T00:16:29.000Z,30.92
2022-10-01T00:18:55.000Z,31.23
2022-10-01T00:21:21.000Z,33
2022-10-01T00:23:49.000Z,35.2
2022-10-01T00:26:14.000Z,43.1
2022-10-01T00:28:38.000Z,40.45
2022-10-01T00:31:04.000Z,43.3
2022-10-01T00:33:31.000Z,43.63
2022-10-01T00:35:56.000Z,46.5
2022-10-01T00:38:22.000Z,49.47
2022-10-01T00:40:47.000Z,54.27
2022-10-01T00:43:14.000Z,63.78
2022-10-01T00:45:39.000Z,65.67
2022-10-01T00:48:06.000Z,72.32
2022-10-01T00:50:30.000Z,72.55
2022-10-01T00:52:57.000Z,83.45
2022-10-01T00:55:24.000Z,73.93
2022-10-01T00:59:51.000Z,82.88
2022-10-01T01:00:17.000Z,88.43
2022-10-01T01:02:41.000Z,77.25
2022-10-01T01:05:07.000Z,72.87
2022-10-01T01:07:33.000Z,80.23
2022-10-01T01:09:59.000Z,59.53
2022-10-01T01:12:26.000Z,52.85
2022-10-01T01:14:51.000Z,53.63
2022-10-01T01:17:16.000Z,47.83
2022-10-01T01:19:42.000Z,54.1
2022-10-01T01:22:11.000Z,41.15
2022-10-01T01:24:34.000Z,43.8
2022-10-01T01:27:00.000Z,36.9
2022-10-01T01:29:28.000Z,37.03
2022-10-01T01:31:53.000Z,29.6
2022-10-01T01:34:19.000Z,34.77
2022-10-01T01:36:45.000Z,34.77
2022-10-01T01:39:11.000Z,32.05
2022-10-01T01:41:36.000Z,26.83
2022-10-01T01:44:03.000Z,26
2022-10-01T01:46:28.000Z,28
2022-10-01T01:48:56.000Z,27.77
2022-10-01T01:51:20.000Z,29.17
2022-10-01T01:53:46.000Z,32.53
2022-10-01T01:56:12.000Z,28.35
2022-10-01T01:58:38.000Z,32.33
2022-10-01T02:01:05.000Z,29.67
2022-10-01T02:03:30.000Z,35.23
2022-10-01T02:05:58.000Z,26.4
2022-10-01T02:08:25.000Z,25.02
2022-10-01T02:10:51.000Z,30.9
2022-10-01T02:13:17.000Z,23.32
2022-10-01T02:15:44.000Z,25.48
2022-10-01T02:18:10.000Z,27.07
2022-10-01T02:20:36.000Z,24.65
2022-10-01T02:23:03.000Z,26.8
2022-10-01T02:25:28.000Z,28.7
2022-10-01T02:30:20.000Z,25.9
2022-10-01T02:32:47.000Z,27.4
2022-10-01T02:35:12.000Z,27.65
2022-10-01T02:37:38.000Z,26.35
2022-10-01T02:40:06.000Z,27.2
2022-10-01T02:42:31.000Z,27.42
2022-10-01T02:44:59.000Z,24.65
2022-10-01T02:47:27.000Z,27
2022-10-01T02:49:53.000Z,24.85
2022-10-01T02:52:21.000Z,24.93
2022-10-01T02:54:46.000Z,24.47
2022-10-01T02:57:12.000Z,25.92
2022-10-01T02:59:37.000Z,24.35
2022-10-01T03:02:04.000Z,23.8
2022-10-01T03:04:29.000Z,24.85
2022-10-01T03:06:56.000Z,25.67
2022-10-01T03:09:23.000Z,23.47
2022-10-01T03:11:50.000Z,26.8
2022-10-01T03:14:17.000Z,28.8
2022-10-01T03:16:46.000Z,29.42
2022-10-01T03:19:11.000Z,22.05
2022-10-01T03:21:37.000Z,25.92
2022-10-01T03:24:06.000Z,25.68
2022-10-01T03:26:32.000Z,36.28
2022-10-01T03:28:58.000Z,31.93
2022-10-01T03:31:24.000Z,38.85
2022-10-01T03:33:53.000Z,47.2
2022-10-01T03:36:19.000Z,49.67
2022-10-01T03:38:45.000Z,51.28
2022-10-01T03:41:11.000Z,56.55
2022-10-01T03:43:38.000Z,52.67
2022-10-01T03:46:05.000Z,49.03
2022-10-01T03:48:29.000Z,43.97
2022-10-01T03:50:55.000Z,42.85
2022-10-01T03:53:23.000Z,44.33
2022-10-01T03:55:47.000Z,41.77
2022-10-01T03:58:13.000Z,33.4
2022-10-01T04:00:39.000Z,32.48
2022-10-01T04:03:04.000Z,35.15
2022-10-01T04:05:30.000Z,34.23
2022-10-01T04:07:56.000Z,31.53
2022-10-01T04:10:21.000Z,30.85
2022-10-01T04:12:48.000Z,31.27
2022-10-01T04:15:14.000Z,32.98
2022-10-01T04:17:39.000Z,29.4
2022-10-01T04:20:07.000Z,32.5
2022-10-01T04:22:32.000Z,36.17
2022-10-01T04:24:58.000Z,31.8
2022-10-01T04:27:26.000Z,35.23
2022-10-01T04:29:52.000Z,34.3
2022-10-01T04:32:18.000Z,36.85
2022-10-01T04:34:43.000Z,33.37
2022-10-01T04:37:11.000Z,34.25
2022-10-01T04:39:38.000Z,37.15
2022-10-01T04:42:04.000Z,39.07
2022-10-01T04:44:30.000Z,35.07
2022-10-01T04:47:00.000Z,43.08
2022-10-01T04:49:27.000Z,39.18
2022-10-01T04:54:27.000Z,40.6
2022-10-01T04:56:52.000Z,39.6
2022-10-01T04:59:19.000Z,40.08
2022-10-01T05:01:47.000Z,35.03
2022-10-01T05:04:13.000Z,36.3
2022-10-01T05:06:39.000Z,44.03
2022-10-01T05:09:05.000Z,35.13
2022-10-01T05:11:32.000Z,47.67
2022-10-01T05:14:01.000Z,50.2
2022-10-01T05:16:34.000Z,73.4
2022-10-01T05:18:57.000Z,52.5
2022-10-01T05:23:58.000Z,39.5
2022-10-01T05:26:28.000Z,54.33
2022-10-01T05:28:54.000Z,41.4
2022-10-01T05:31:20.000Z,70.83
2022-10-01T05:33:46.000Z,52.23
2022-10-01T05:36:12.000Z,51.73
2022-10-01T05:38:38.000Z,36.55
2022-10-01T05:41:08.000Z,37.03
2022-10-01T05:43:35.000Z,39.23
2022-10-01T05:46:00.000Z,34.38
2022-10-01T05:48:29.000Z,23.6
2022-10-01T05:50:54.000Z,31.05
2022-10-01T05:53:26.000Z,23
2022-10-01T05:55:54.000Z,22.35
2022-10-01T05:58:20.000Z,20.88
2022-10-01T06:00:46.000Z,18.9
2022-10-01T06:03:20.000Z,19.97
2022-10-01T06:05:50.000Z,20.23
2022-10-01T06:08:17.000Z,22.62
2022-10-01T06:10:42.000Z,25.63
2022-10-01T06:13:09.000Z,22.63
2022-10-01T06:15:40.000Z,25.45
2022-10-01T06:18:06.000Z,26.02
2022-10-01T06:20:36.000Z,27.1
2022-10-01T06:23:02.000Z,24.07
2022-10-01T06:25:28.000Z,29.4
2022-10-01T06:27:55.000Z,29.98
2022-10-01T06:30:22.000Z,34.27
2022-10-01T06:35:23.000Z,31.35
2022-10-01T06:37:48.000Z,33.78
2022-10-01T06:40:14.000Z,29.87
2022-10-01T06:42:40.000Z,30.4
2022-10-01T06:45:09.000Z,29.72
2022-10-01T06:47:32.000Z,36.4
2022-10-01T06:49:58.000Z,43.65
2022-10-01T06:52:25.000Z,41.48
2022-10-01T06:54:51.000Z,36.88
2022-10-01T06:57:17.000Z,59.27
2022-10-01T06:59:43.000Z,56.63
2022-10-01T07:02:10.000Z,50.3
2022-10-01T07:04:39.000Z,50.7
2022-10-01T07:07:06.000Z,50.83
2022-10-01T07:09:31.000Z,44.7
2022-10-01T07:14:22.000Z,44.67
2022-10-01T07:16:49.000Z,33.92
2022-10-01T07:19:14.000Z,29.3
2022-10-01T07:21:41.000Z,19.97
2022-10-01T07:24:11.000Z,29.23
2022-10-01T07:26:38.000Z,31.9
2022-10-01T07:29:10.000Z,38.98
2022-10-01T07:31:35.000Z,35.25
2022-10-01T07:34:01.000Z,39.2
2022-10-01T07:36:29.000Z,34.53
2022-10-01T07:38:55.000Z,30.2
2022-10-01T07:41:23.000Z,31.93
2022-10-01T07:43:49.000Z,34.7
2022-10-01T07:46:16.000Z,35.98
2022-10-01T07:48:44.000Z,39.65
2022-10-01T07:51:14.000Z,52.45
2022-10-01T07:53:40.000Z,55.78
2022-10-01T07:56:10.000Z,51.08
2022-10-01T07:58:38.000Z,44.7
2022-10-01T08:01:06.000Z,50.12
2022-10-01T08:03:32.000Z,51.5
2022-10-01T08:05:57.000Z,47.9
2022-10-01T08:08:23.000Z,44.67
2022-10-01T08:10:52.000Z,38.43
2022-10-01T08:13:22.000Z,39.8
2022-10-01T08:15:48.000Z,39.05
2022-10-01T08:18:15.000Z,37.43
2022-10-01T08:20:42.000Z,40.3
2022-10-01T08:23:11.000Z,32.75
2022-10-01T08:25:37.000Z,34.6
2022-10-01T08:28:06.000Z,28.67
2022-10-01T08:30:34.000Z,33.5
2022-10-01T08:32:59.000Z,31.23
2022-10-01T08:35:25.000Z,37.3
2022-10-01T08:37:51.000Z,27.45
2022-10-01T08:40:25.000Z,27.3
2022-10-01T08:42:51.000Z,30.27
2022-10-01T08:45:20.000Z,28.1
2022-10-01T08:47:46.000Z,29.42
2022-10-01T08:50:14.000Z,30.07
2022-10-01T08:52:39.000Z,34.92
2022-10-01T08:55:06.000Z,30.4
2022-10-01T08:57:32.000Z,34.88
2022-10-01T09:00:02.000Z,35.75
2022-10-01T09:02:31.000Z,31.15
2022-10-01T09:04:59.000Z,34.18
2022-10-01T09:07:25.000Z,33.63
2022-10-01T09:09:54.000Z,36.3
2022-10-01T09:12:22.000Z,32.2
2022-10-01T09:14:49.000Z,32.78
2022-10-01T09:17:14.000Z,33.4
2022-10-01T09:19:40.000Z,34.8
2022-10-01T09:22:09.000Z,31.83
2022-10-01T09:24:34.000Z,31.82
2022-10-01T09:26:59.000Z,34.17
2022-10-01T09:29:26.000Z,34.5
2022-10-01T09:31:58.000Z,32.98
2022-10-01T09:34:25.000Z,29.97
2022-10-01T09:39:26.000Z,28.87
2022-10-01T09:41:51.000Z,31.27
2022-10-01T09:44:17.000Z,29.97
2022-10-01T09:46:44.000Z,29.97
2022-10-01T09:49:10.000Z,31.57
2022-10-01T09:51:36.000Z,26.73
2022-10-01T09:54:02.000Z,29.87
2022-10-01T09:56:27.000Z,32.27
2022-10-01T09:58:54.000Z,27.62
2022-10-01T10:01:21.000Z,30.12
2022-10-01T10:03:48.000Z,28.6
2022-10-01T10:06:16.000Z,28.23
2022-10-01T10:08:43.000Z,26.33
2022-10-01T10:11:10.000Z,28.77
2022-10-01T10:13:36.000Z,28.9
2022-10-01T10:16:08.000Z,25.43
2022-10-01T10:18:37.000Z,26.07
2022-10-01T10:21:03.000Z,24.75
2022-10-01T10:23:31.000Z,23.4
2022-10-01T10:25:58.000Z,23.87
2022-10-01T10:31:03.000Z,24.12
2022-10-01T10:33:28.000Z,19.85
2022-10-01T10:35:55.000Z,20.12
2022-10-01T10:40:55.000Z,23.15
2022-10-01T10:43:28.000Z,23.67
2022-10-01T10:48:28.000Z,22.65
2022-10-01T10:50:55.000Z,28.17
2022-10-01T10:53:22.000Z,26.7
2022-10-01T10:55:47.000Z,30.35
2022-10-01T10:58:12.000Z,31.75
2022-10-01T11:00:39.000Z,27.52
2022-10-01T11:03:05.000Z,38.3
2022-10-01T11:05:30.000Z,30.08
2022-10-01T11:07:56.000Z,30.37
2022-10-01T11:10:23.000Z,32.23
2022-10-01T11:12:49.000Z,29.2
2022-10-01T11:15:14.000Z,31.17
2022-10-01T11:17:42.000Z,34.17
2022-10-01T11:20:10.000Z,33.7
2022-10-01T11:22:33.000Z,38.75
2022-10-01T11:27:31.000Z,36.1
2022-10-01T11:30:02.000Z,37.73
2022-10-01T11:32:27.000Z,35.9
2022-10-01T11:34:55.000Z,37.03
2022-10-01T11:37:22.000Z,39.07
2022-10-01T11:39:52.000Z,42.1
2022-10-01T11:42:18.000Z,44.55
2022-10-01T11:44:47.000Z,45.55
2022-10-01T11:47:13.000Z,44.5
2022-10-01T11:49:39.000Z,49.73
2022-10-01T11:52:10.000Z,51.33
2022-10-01T11:57:11.000Z,48.1
2022-10-01T12:04:47.000Z,46.8
2022-10-01T12:07:13.000Z,41.08
2022-10-01T12:09:42.000Z,39
2022-10-01T12:12:10.000Z,48.17
2022-10-01T12:14:36.000Z,52.83
2022-10-01T12:17:12.000Z,47.62
2022-10-01T12:19:38.000Z,37.85
2022-10-01T12:24:35.000Z,44.6
2022-10-01T12:27:01.000Z,43.8
2022-10-01T12:29:29.000Z,45.08
2022-10-01T12:31:56.000Z,44.1
2022-10-01T12:34:26.000Z,45.7
2022-10-01T12:36:54.000Z,38.98
2022-10-01T12:39:21.000Z,42.6
2022-10-01T12:41:49.000Z,39.67
2022-10-01T12:44:20.000Z,38.13
2022-10-01T12:46:47.000Z,39.3
2022-10-01T12:51:54.000Z,39.37
2022-10-01T12:57:06.000Z,38.45
2022-10-01T12:59:41.000Z,41.08
2022-10-01T13:02:06.000Z,37.3
2022-10-01T13:04:30.000Z,41.58
2022-10-01T13:06:58.000Z,42.2
2022-10-01T13:09:24.000Z,40.33
2022-10-01T13:11:51.000Z,40.25
2022-10-01T13:14:17.000Z,43.1
2022-10-01T13:16:47.000Z,41.7
2022-10-01T13:19:17.000Z,39.7
2022-10-01T13:21:44.000Z,39.03
2022-10-01T13:24:16.000Z,41.92
2022-10-01T13:26:44.000Z,37.83
2022-10-01T13:29:10.000Z,43.98
2022-10-01T13:31:42.000Z,41.92
2022-10-01T13:34:13.000Z,40.25
2022-10-01T13:36:42.000Z,40.95
2022-10-01T13:39:09.000Z,40.47
2022-10-01T13:41:36.000Z,43.25
2022-10-01T13:44:01.000Z,41.27
2022-10-01T13:46:29.000Z,45
2022-10-01T13:48:58.000Z,46
2022-10-01T13:51:26.000Z,48.57
2022-10-01T13:53:55.000Z,43.2
2022-10-01T13:56:21.000Z,45.65
2022-10-01T13:58:55.000Z,40.1
2022-10-01T14:01:22.000Z,44.77
2022-10-01T14:03:49.000Z,47
2022-10-01T14:06:16.000Z,44.03
2022-10-01T14:08:44.000Z,46
2022-10-01T14:11:10.000Z,44.27
2022-10-01T14:13:37.000Z,42.1
2022-10-01T14:16:05.000Z,41.13
2022-10-01T14:18:30.000Z,43.13
2022-10-01T14:20:56.000Z,42.4
2022-10-01T14:23:29.000Z,43.3
2022-10-01T14:25:54.000Z,44.08
2022-10-01T14:28:21.000Z,44.8
2022-10-01T14:30:48.000Z,41.98
2022-10-01T14:33:17.000Z,42.62
2022-10-01T14:35:43.000Z,40.03
2022-10-01T14:38:11.000Z,41.58
2022-10-01T14:40:38.000Z,42.93
2022-10-01T14:43:06.000Z,41.23
2022-10-01T14:45:32.000Z,42.03
2022-10-01T14:48:01.000Z,41.5
2022-10-01T14:50:30.000Z,43.5
2022-10-01T14:52:54.000Z,50.37
2022-10-01T14:55:21.000Z,49.1
2022-10-01T14:57:47.000Z,46.97
2022-10-01T15:00:18.000Z,50.97
2022-10-01T15:02:39.000Z,51.75
2022-10-01T15:05:07.000Z,53.25
2022-10-01T15:07:33.000Z,48.2
2022-10-01T15:10:03.000Z,51.5
2022-10-01T15:12:28.000Z,47.2
2022-10-01T15:14:54.000Z,52.43
2022-10-01T15:17:22.000Z,50
2022-10-01T15:19:50.000Z,50.67
2022-10-01T15:22:25.000Z,51.1
2022-10-01T15:24:51.000Z,47.8
2022-10-01T15:27:16.000Z,49.7
2022-10-01T15:29:43.000Z,48.83
2022-10-01T15:32:10.000Z,54.3
2022-10-01T15:34:37.000Z,58.2
2022-10-01T15:37:03.000Z,54.8
2022-10-01T15:39:31.000Z,56.9
2022-10-01T15:41:57.000Z,57.88
2022-10-01T15:44:26.000Z,53.38
2022-10-01T15:46:52.000Z,51.37
2022-10-01T15:49:18.000Z,55.37
2022-10-01T15:51:44.000Z,53.6
2022-10-01T15:54:09.000Z,49.27
2022-10-01T15:56:36.000Z,47.47
2022-10-01T15:59:02.000Z,50.63
2022-10-01T16:01:28.000Z,58
2022-10-01T16:03:54.000Z,49.83
2022-10-01T16:06:21.000Z,51.42
2022-10-01T16:08:50.000Z,49.93
2022-10-01T16:11:21.000Z,52.65
2022-10-01T16:16:14.000Z,53.85
2022-10-01T16:18:39.000Z,45.92
2022-10-01T16:21:07.000Z,47.9
2022-10-01T16:23:31.000Z,50.13
2022-10-01T16:25:57.000Z,52.43
2022-10-01T16:28:24.000Z,48.33
2022-10-01T16:30:49.000Z,49.42
2022-10-01T16:33:14.000Z,49.17
2022-10-01T16:35:40.000Z,45.9
2022-10-01T16:38:07.000Z,47.5
2022-10-01T16:40:33.000Z,47.27
2022-10-01T16:42:59.000Z,43.8
2022-10-01T16:45:25.000Z,42.8
2022-10-01T16:47:55.000Z,44.77
2022-10-01T16:50:21.000Z,44.6
2022-10-01T16:52:43.000Z,41.03
2022-10-01T16:55:12.000Z,42.3
2022-10-01T16:57:35.000Z,43.98
2022-10-01T17:00:03.000Z,41.73
2022-10-01T17:02:28.000Z,39
2022-10-01T17:04:53.000Z,43.13
2022-10-01T17:07:18.000Z,40.8
2022-10-01T17:09:45.000Z,42.15
2022-10-01T17:12:10.000Z,45.3
2022-10-01T17:14:37.000Z,44.93
2022-10-01T17:17:02.000Z,43.23
2022-10-01T17:19:28.000Z,41.65
2022-10-01T17:21:53.000Z,42.73
2022-10-01T17:24:22.000Z,41.23
2022-10-01T17:26:45.000Z,40.17
2022-10-01T17:29:11.000Z,37.58
2022-10-01T17:31:39.000Z,42.2
2022-10-01T17:37:08.000Z,46.6
2022-10-01T17:38:55.000Z,39.37
2022-10-01T17:41:20.000Z,44.13
2022-10-01T17:43:46.000Z,46.68
2022-10-01T17:46:15.000Z,44.88
2022-10-01T17:48:38.000Z,40.77
2022-10-01T17:51:04.000Z,45.6
2022-10-01T17:53:31.000Z,40.23
2022-10-01T17:55:55.000Z,40.2
2022-10-01T18:00:48.000Z,43.95
2022-10-01T18:03:14.000Z,44.93
2022-10-01T18:05:40.000Z,41.13
2022-10-01T18:08:07.000Z,44.55
2022-10-01T18:10:32.000Z,44.13
2022-10-01T18:12:57.000Z,46.1
2022-10-01T18:15:24.000Z,46.13
2022-10-01T18:20:19.000Z,47.6
2022-10-01T18:25:09.000Z,47.98
2022-10-01T18:27:34.000Z,45.15
2022-10-01T18:30:00.000Z,45.43
2022-10-01T18:32:25.000Z,40.9
2022-10-01T18:34:51.000Z,43.98
2022-10-01T18:37:18.000Z,46.95
2022-10-01T18:39:44.000Z,46.58
2022-10-01T18:42:11.000Z,45.63
2022-10-01T18:44:37.000Z,45.5
2022-10-01T18:47:02.000Z,45.55
2022-10-01T18:49:27.000Z,47.03
2022-10-01T18:51:55.000Z,43.52
2022-10-01T18:54:20.000Z,47.6
2022-10-01T18:56:46.000Z,41.17
2022-10-01T18:59:13.000Z,44.08
2022-10-01T19:01:37.000Z,42.73
2022-10-01T19:04:04.000Z,48.4
2022-10-01T19:06:30.000Z,50.28
2022-10-01T19:08:55.000Z,39.6
2022-10-01T19:11:22.000Z,41.53
2022-10-01T19:13:48.000Z,43.52
2022-10-01T19:16:13.000Z,44.73
2022-10-01T19:18:39.000Z,42.25
2022-10-01T19:21:06.000Z,39.13
2022-10-01T19:23:31.000Z,39.73
2022-10-01T19:25:57.000Z,36.88
2022-10-01T19:28:23.000Z,41.02
2022-10-01T19:30:48.000Z,44.23
2022-10-01T19:33:15.000Z,35.97
2022-10-01T19:35:40.000Z,34.33
2022-10-01T19:38:08.000Z,37.08
2022-10-01T19:40:33.000Z,31.5
2022-10-01T19:42:59.000Z,31.83
2022-10-01T19:45:26.000Z,30.97
2022-10-01T19:47:51.000Z,32.38
2022-10-01T19:50:18.000Z,35.52
2022-10-01T19:52:42.000Z,30.25
2022-10-01T19:55:12.000Z,31.87
2022-10-01T19:57:35.000Z,30.63
2022-10-01T20:00:02.000Z,27.8
2022-10-01T20:02:27.000Z,29.87
2022-10-01T20:04:53.000Z,26.8
2022-10-01T20:07:19.000Z,29.52
2022-10-01T20:09:45.000Z,28.05
2022-10-01T20:12:11.000Z,27.32
2022-10-01T20:17:03.000Z,24.73
2022-10-01T20:19:30.000Z,25.05
2022-10-01T20:21:56.000Z,23.9
2022-10-01T20:24:21.000Z,21.73
2022-10-01T20:26:48.000Z,21.83
2022-10-01T20:29:13.000Z,21.07
2022-10-01T20:31:39.000Z,22.93
2022-10-01T20:34:05.000Z,24.3
2022-10-01T20:36:32.000Z,22
2022-10-01T20:39:00.000Z,20.35
2022-10-01T20:41:59.000Z,21.87
2022-10-01T20:43:49.000Z,19.67
2022-10-01T20:46:16.000Z,21.13
2022-10-01T20:48:42.000Z,22.25
2022-10-01T20:51:09.000Z,20.08
2022-10-01T20:53:34.000Z,19.48
2022-10-01T20:55:59.000Z,19.62
2022-10-01T20:58:26.000Z,21.7
2022-10-01T21:00:51.000Z,22.1
2022-10-01T21:03:17.000Z,20.48
2022-10-01T21:05:43.000Z,23.83
2022-10-01T21:08:09.000Z,20.32
2022-10-01T21:10:36.000Z,16.25
2022-10-01T21:13:02.000Z,16.7
2022-10-01T21:15:27.000Z,18.15
2022-10-01T21:17:52.000Z,18.67
2022-10-01T21:20:20.000Z,18.57
2022-10-01T21:22:45.000Z,17.32
2022-10-01T21:25:11.000Z,19.12
2022-10-01T21:27:38.000Z,15.63
2022-10-01T21:30:05.000Z,16.77
2022-10-01T21:32:29.000Z,15.55
2022-10-01T21:34:54.000Z,16.62
2022-10-01T21:37:20.000Z,16.15
2022-10-01T21:39:47.000Z,17.1
2022-10-01T21:42:13.000Z,17.75
2022-10-01T21:44:39.000Z,14.7
2022-10-01T21:47:06.000Z,19.23
2022-10-01T21:49:32.000Z,18.7
2022-10-01T21:51:58.000Z,17.98
2022-10-01T21:56:49.000Z,18.83
2022-10-01T21:59:15.000Z,16.75
2022-10-01T22:01:41.000Z,19.1
2022-10-01T22:04:07.000Z,17.4
2022-10-01T22:06:33.000Z,20.97
2022-10-01T22:08:58.000Z,19.07
2022-10-01T22:11:25.000Z,17.8
2022-10-01T22:13:51.000Z,19.02
2022-10-01T22:16:17.000Z,18.73
2022-10-01T22:21:10.000Z,19.63
2022-10-01T22:23:35.000Z,21.07
2022-10-01T22:26:01.000Z,24.6
2022-10-01T22:28:27.000Z,21.95
2022-10-01T22:30:52.000Z,26.68
2022-10-01T22:33:19.000Z,23.98
2022-10-01T22:35:45.000Z,23.27
2022-10-01T22:38:11.000Z,24.23
2022-10-01T22:40:36.000Z,25.6
2022-10-01T22:43:03.000Z,21.4
2022-10-01T22:45:28.000Z,25.7
2022-10-01T22:47:54.000Z,20.55
2022-10-01T22:50:20.000Z,22.37
2022-10-01T22:52:47.000Z,19.98
2022-10-01T22:55:13.000Z,23
2022-10-01T22:57:37.000Z,19.67
2022-10-01T23:00:13.000Z,23.23
2022-10-01T23:02:30.000Z,20.95
2022-10-01T23:04:55.000Z,24.2
2022-10-01T23:07:22.000Z,26.02
2022-10-01T23:09:48.000Z,29.72
2022-10-01T23:12:14.000Z,21.9
2022-10-01T23:14:40.000Z,28.45
2022-10-01T23:17:06.000Z,24.32
2022-10-01T23:19:32.000Z,26.03
2022-10-01T23:21:58.000Z,23.2
2022-10-01T23:24:24.000Z,22.4
2022-10-01T23:26:50.000Z,25.4
2022-10-01T23:29:16.000Z,26.25
2022-10-01T23:31:42.000Z,25.25
2022-10-01T23:34:08.000Z,25.4
2022-10-01T23:36:33.000Z,26.68
2022-10-01T23:39:00.000Z,27.82
2022-10-01T23:41:26.000Z,27.27
2022-10-01T23:43:52.000Z,28.45
2022-10-01T23:46:18.000Z,25.97
2022-10-01T23:48:44.000Z,30.62
2022-10-01T23:51:11.000Z,29.15
2022-10-01T23:53:36.000Z,29.5
2022-10-01T23:56:02.000Z,31.3
2022-10-01T23:58:29.000Z,29.6
